Time;durP1;ratioP1;P1;durP2;ratioP2;P2;SDS_P1;SDS_P2;PMS_P1;PMS_P2;Temp;Humidity;BMP_temperature;BMP_pressure;BME280_temperature;BME280_humidity;BME280_pressure;Samples;Min_cycle;Max_cycle;Signal;HPM_P1;HPM_P2
2022/08/19 00:00:28;;;;;;;;;;;15.40;99.90;;;;;;6224833;22;20256;-74
2022/08/19 00:02:54;;;;;;;;;;;15.40;99.90;;;;;;6250103;22;20238;-74
2022/08/19 00:05:20;;;;;;;;;;;15.30;99.90;;;;;;6250376;22;19919;-75
2022/08/19 00:07:46;;;;;;;;;;;15.40;99.90;;;;;;6250632;22;19965;-74
2022/08/19 00:10:12;;;;;;;;;;;15.40;99.90;;;;;;6250309;22;19927;-75
2022/08/19 00:12:38;;;;;;;;;;;15.40;99.90;;;;;;6250468;22;19966;-75
2022/08/19 00:15:05;;;;;;;;;;;15.40;99.90;;;;;;6250710;22;19920;-73
2022/08/19 00:17:31;;;;;;;;;;;15.40;99.90;;;;;;6250372;22;20245;-74
2022/08/19 00:19:56;;;;;;;;;;;15.40;99.90;;;;;;6225073;22;19926;-74
2022/08/19 00:22:22;;;;;;;;;;;15.40;99.90;;;;;;6249447;22;19926;-75
2022/08/19 00:24:48;;;;;;;;;;;15.30;99.90;;;;;;6249984;22;20234;-73
2022/08/19 00:27:13;;;;;;;;;;;15.30;99.90;;;;;;6224820;22;19954;-74
2022/08/19 00:29:39;;;;;;;;;;;15.30;99.90;;;;;;6225086;22;19965;-73
2022/08/19 00:32:05;;;;;;;;;;;15.20;99.90;;;;;;6224827;22;20227;-74
2022/08/19 00:34:30;;;;;;;;;;;15.20;99.90;;;;;;6250420;22;19916;-75
2022/08/19 00:36:57;;;;;;;;;;;15.20;99.90;;;;;;6245220;23;19919;-74
2022/08/19 00:39:23;;;;;;;;;;;15.20;99.90;;;;;;6219836;22;19958;-74
2022/08/19 00:41:49;;;;;;;;;;;15.20;99.90;;;;;;6244878;23;19924;-74
2022/08/19 00:44:26;;;;;;;;;;;15.10;99.90;;;;;;6219793;23;19924;-74
2022/08/19 00:46:53;;;;;;;;;;;15.10;99.90;;;;;;6244818;23;19926;-74
2022/08/19 00:49:22;;;;;;;;;;;15.10;99.90;;;;;;6245154;22;19924;-73
2022/08/19 00:51:53;;;;;;;;;;;15.10;99.90;;;;;;6222169;23;20042;-74
2022/08/19 00:54:19;;;;;;;;;;;15.10;99.90;;;;;;6246812;23;20253;-75
2022/08/19 00:56:46;;;;;;;;;;;15.00;99.90;;;;;;6221542;23;20249;-75
2022/08/19 00:59:11;;;;;;;;;;;15.00;99.90;;;;;;6221491;23;20288;-74
2022/08/19 01:01:39;;;;;;;;;;;15.00;99.90;;;;;;6246676;22;19915;-74
2022/08/19 01:04:05;;;;;;;;;;;15.00;99.90;;;;;;6221976;23;19926;-75
2022/08/19 01:06:32;;;;;;;;;;;15.00;99.90;;;;;;6221907;23;19920;-74
2022/08/19 01:08:58;;;;;;;;;;;15.00;99.90;;;;;;6221790;23;19923;-74
2022/08/19 01:11:24;;;;;;;;;;;15.00;99.90;;;;;;6221798;23;19974;-74
2022/08/19 01:13:51;;;;;;;;;;;15.00;99.90;;;;;;6246654;23;20293;-75
2022/08/19 01:16:18;;;;;;;;;;;15.00;99.90;;;;;;6221505;23;20401;-75
2022/08/19 01:18:44;;;;;;;;;;;14.90;99.90;;;;;;6220870;23;19920;-73
2022/08/19 01:21:21;;;;;;;;;;;14.90;99.90;;;;;;6246553;22;19927;-73
2022/08/19 01:23:47;;;;;;;;;;;14.90;99.90;;;;;;6247449;23;19954;-75
2022/08/19 01:26:17;;;;;;;;;;;14.80;99.90;;;;;;6247176;23;20327;-73
2022/08/19 01:28:44;;;;;;;;;;;14.80;99.90;;;;;;6246973;23;19957;-76
2022/08/19 01:31:12;;;;;;;;;;;14.90;99.90;;;;;;6221499;23;20224;-74
2022/08/19 01:33:38;;;;;;;;;;;14.80;99.90;;;;;;6246742;23;20537;-74
2022/08/19 01:36:05;;;;;;;;;;;14.80;99.90;;;;;;6224854;22;19954;-74
2022/08/19 01:38:31;;;;;;;;;;;14.80;99.90;;;;;;6252099;22;19919;-76
2022/08/19 01:40:58;;;;;;;;;;;14.80;99.90;;;;;;6226484;22;19994;-75
2022/08/19 01:43:23;;;;;;;;;;;14.80;99.90;;;;;;6251859;22;19942;-76
2022/08/19 01:45:50;;;;;;;;;;;14.80;99.90;;;;;;6251947;22;20326;-75
2022/08/19 01:48:16;;;;;;;;;;;14.80;99.90;;;;;;6251751;22;19919;-74
2022/08/19 01:50:43;;;;;;;;;;;14.80;99.90;;;;;;6226488;22;20284;-73
2022/08/19 01:53:10;;;;;;;;;;;14.70;99.90;;;;;;6251814;22;20015;-75
2022/08/19 01:55:37;;;;;;;;;;;14.70;99.90;;;;;;6226354;22;19919;-75
2022/08/19 01:58:05;;;;;;;;;;;14.70;99.90;;;;;;6251286;22;19964;-75
2022/08/19 02:00:31;;;;;;;;;;;14.70;99.90;;;;;;6250899;22;19919;-74
2022/08/19 02:02:57;;;;;;;;;;;14.60;99.90;;;;;;6250611;22;19925;-74
2022/08/19 02:05:23;;;;;;;;;;;14.60;99.90;;;;;;6226233;22;19951;-74
2022/08/19 02:07:49;;;;;;;;;;;14.60;99.90;;;;;;6225425;22;19970;-73
2022/08/19 02:10:17;;;;;;;;;;;14.50;99.90;;;;;;6226085;22;20288;-74
2022/08/19 02:12:43;;;;;;;;;;;14.50;99.90;;;;;;6251431;22;20253;-74
2022/08/19 02:15:09;;;;;;;;;;;14.50;99.90;;;;;;6251147;22;19926;-74
2022/08/19 02:17:35;;;;;;;;;;;14.50;99.90;;;;;;6251664;22;19981;-74
2022/08/19 02:20:01;;;;;;;;;;;14.50;99.90;;;;;;6226267;22;19915;-74
2022/08/19 02:22:27;;;;;;;;;;;14.50;99.90;;;;;;6251538;22;19926;-75
2022/08/19 02:24:53;;;;;;;;;;;14.50;99.90;;;;;;6226202;22;19919;-77
2022/08/19 02:27:19;;;;;;;;;;;14.50;99.90;;;;;;6226244;22;19990;-75
2022/08/19 02:29:48;;;;;;;;;;;14.40;99.90;;;;;;6225925;22;20240;-75
2022/08/19 02:32:15;;;;;;;;;;;14.50;99.90;;;;;;6226048;22;20322;-75
2022/08/19 02:34:40;;;;;;;;;;;14.50;99.90;;;;;;6251239;22;20391;-76
2022/08/19 02:38:24;;;;;;;;;;;14.40;99.90;;;;;;6224279;22;19954;-75
2022/08/19 02:39:52;;;;;;;;;;;14.40;99.90;;;;;;6250729;22;19994;-74
2022/08/19 02:42:17;;;;;;;;;;;14.50;99.90;;;;;;6251164;22;19962;-75
2022/08/19 02:44:43;;;;;;;;;;;14.40;99.90;;;;;;6251196;22;19954;-76
2022/08/19 02:47:09;;;;;;;;;;;14.40;99.90;;;;;;6251157;22;19919;-75
2022/08/19 02:49:35;;;;;;;;;;;14.40;99.90;;;;;;6225613;22;20326;-74
2022/08/19 02:52:01;;;;;;;;;;;14.40;99.90;;;;;;6225528;22;19926;-75
2022/08/19 02:54:27;;;;;;;;;;;14.40;99.90;;;;;;6225966;22;19920;-75
2022/08/19 02:56:53;;;;;;;;;;;14.40;99.90;;;;;;6278183;22;19952;-75
2022/08/19 02:59:18;;;;;;;;;;;14.50;99.90;;;;;;6226001;22;20346;-76
2022/08/19 03:01:45;;;;;;;;;;;14.50;99.90;;;;;;6249625;22;19923;-74
2022/08/19 03:04:12;;;;;;;;;;;14.40;99.90;;;;;;6249001;22;19961;-76
2022/08/19 03:06:38;;;;;;;;;;;14.60;99.90;;;;;;6250454;22;19919;-74
2022/08/19 03:09:04;;;;;;;;;;;14.50;99.90;;;;;;6225641;22;19923;-75
2022/08/19 03:11:30;;;;;;;;;;;14.50;99.90;;;;;;6224820;22;19919;-75
2022/08/19 03:13:56;;;;;;;;;;;14.40;99.90;;;;;;6225453;22;19919;-75
2022/08/19 03:16:24;;;;;;;;;;;14.40;99.90;;;;;;6251082;22;19965;-75
2022/08/19 03:18:51;;;;;;;;;;;14.40;99.90;;;;;;6225688;22;19919;-74
2022/08/19 03:21:17;;;;;;;;;;;14.40;99.90;;;;;;6250672;22;20341;-74
2022/08/19 03:23:43;;;;;;;;;;;14.40;99.90;;;;;;6225494;22;20348;-73
2022/08/19 03:26:09;;;;;;;;;;;14.40;99.90;;;;;;6250796;22;19990;-74
2022/08/19 03:28:34;;;;;;;;;;;14.40;99.90;;;;;;6250459;22;19926;-74
2022/08/19 03:31:06;;;;;;;;;;;14.40;99.90;;;;;;6225061;22;19915;-77
2022/08/19 03:33:32;;;;;;;;;;;14.40;99.90;;;;;;6249013;22;19965;-74
2022/08/19 03:36:07;;;;;;;;;;;14.40;99.90;;;;;;6249920;22;19919;-75
2022/08/19 03:38:34;;;;;;;;;;;14.40;99.90;;;;;;6250899;22;20238;-74
2022/08/19 03:41:09;;;;;;;;;;;14.50;99.90;;;;;;6250564;22;19973;-75
2022/08/19 03:43:36;;;;;;;;;;;14.40;99.90;;;;;;6224822;22;19920;-75
2022/08/19 03:46:03;;;;;;;;;;;14.40;99.90;;;;;;6250615;22;20319;-75
2022/08/19 03:48:30;;;;;;;;;;;14.40;99.90;;;;;;6225154;22;19962;-74
2022/08/19 03:50:57;;;;;;;;;;;14.30;99.90;;;;;;6250470;22;19919;-75
2022/08/19 03:53:22;;;;;;;;;;;14.30;99.90;;;;;;6250552;22;20068;-74
2022/08/19 03:55:48;;;;;;;;;;;14.30;99.90;;;;;;6249833;22;20337;-74
2022/08/19 03:58:14;;;;;;;;;;;14.30;99.90;;;;;;6224757;22;19915;-76
2022/08/19 04:00:41;;;;;;;;;;;14.40;99.90;;;;;;6224334;22;19957;-75
2022/08/19 04:03:07;;;;;;;;;;;14.40;99.90;;;;;;6249247;22;20226;-74
2022/08/19 04:05:33;;;;;;;;;;;14.40;99.90;;;;;;6277775;22;19962;-75
2022/08/19 04:07:58;;;;;;;;;;;14.40;99.90;;;;;;6250011;22;20250;-75
2022/08/19 04:10:24;;;;;;;;;;;14.40;99.90;;;;;;6250141;22;19990;-76
2022/08/19 04:12:50;;;;;;;;;;;14.40;99.90;;;;;;6224084;22;19951;-76
2022/08/19 04:15:16;;;;;;;;;;;14.40;99.90;;;;;;6224112;22;19915;-75
2022/08/19 04:17:41;;;;;;;;;;;14.40;99.90;;;;;;6250466;22;19957;-75
2022/08/19 04:20:07;;;;;;;;;;;14.30;99.90;;;;;;6224013;22;19923;-75
2022/08/19 04:22:33;;;;;;;;;;;14.30;99.90;;;;;;6224451;22;19927;-75
2022/08/19 04:24:58;;;;;;;;;;;14.30;99.90;;;;;;6225432;22;20334;-73
2022/08/19 04:27:24;;;;;;;;;;;14.20;99.90;;;;;;6227045;22;19923;-74
2022/08/19 04:29:49;;;;;;;;;;;14.20;99.90;;;;;;6227084;22;19922;-75
2022/08/19 04:32:15;;;;;;;;;;;14.20;99.90;;;;;;6226896;22;19994;-75
2022/08/19 04:34:42;;;;;;;;;;;14.20;99.90;;;;;;6226839;22;19979;-74
2022/08/19 04:37:11;;;;;;;;;;;14.30;99.90;;;;;;6226561;22;20250;-74
2022/08/19 04:42:39;;;;;;;;;;;14.30;99.90;;;;;;6251010;22;19920;-73
2022/08/19 04:45:09;;;;;;;;;;;14.40;99.90;;;;;;6226663;22;19993;-74
2022/08/19 04:47:39;;;;;;;;;;;14.40;99.90;;;;;;6226944;22;19915;-73
2022/08/19 04:50:05;;;;;;;;;;;14.40;99.90;;;;;;6251959;22;20223;-74
2022/08/19 04:52:31;;;;;;;;;;;14.50;99.90;;;;;;6251954;22;19947;-75
2022/08/19 04:54:58;;;;;;;;;;;14.50;99.90;;;;;;6227007;22;19919;-74
2022/08/19 04:57:24;;;;;;;;;;;14.50;99.90;;;;;;6252394;22;19942;-75
2022/08/19 04:59:53;;;;;;;;;;;14.50;99.90;;;;;;6252168;22;19919;-75
2022/08/19 05:02:19;;;;;;;;;;;14.60;99.90;;;;;;6226864;22;19919;-75
2022/08/19 05:04:44;;;;;;;;;;;14.60;99.90;;;;;;6252301;22;19919;-76
2022/08/19 05:07:10;;;;;;;;;;;14.80;99.90;;;;;;6252133;22;20008;-73
2022/08/19 05:09:35;;;;;;;;;;;14.80;99.90;;;;;;6251770;22;19919;-74
2022/08/19 05:12:01;;;;;;;;;;;14.90;99.90;;;;;;6252006;22;19926;-76
2022/08/19 05:14:29;;;;;;;;;;;14.90;99.90;;;;;;6279241;22;19919;-81
2022/08/19 05:16:55;;;;;;;;;;;15.00;99.90;;;;;;6226894;22;19998;-80
2022/08/19 05:24:56;;;;;;;;;;;15.20;99.90;;;;;;6252024;22;20390;-79
2022/08/19 05:27:21;;;;;;;;;;;15.20;99.90;;;;;;6226238;22;19922;-81
2022/08/19 05:30:03;;;;;;;;;;;15.20;99.90;;;;;;6226648;22;19986;-78
2022/08/19 05:32:28;;;;;;;;;;;15.30;99.90;;;;;;6225976;22;19919;-79
2022/08/19 05:34:54;;;;;;;;;;;15.40;99.90;;;;;;6226081;22;19946;-79
2022/08/19 05:37:21;;;;;;;;;;;15.50;99.90;;;;;;6221039;23;19915;-80
2022/08/19 05:39:46;;;;;;;;;;;15.50;99.90;;;;;;6221336;22;19920;-80
2022/08/19 05:42:12;;;;;;;;;;;15.70;99.90;;;;;;6221488;23;19955;-83
2022/08/19 05:44:43;;;;;;;;;;;15.80;99.90;;;;;;6221242;23;19923;-82
2022/08/19 05:47:09;;;;;;;;;;;15.90;99.90;;;;;;6221541;23;20249;-81
2022/08/19 05:49:36;;;;;;;;;;;16.00;99.90;;;;;;6220347;23;19986;-81
2022/08/19 05:52:04;;;;;;;;;;;16.10;99.90;;;;;;6244846;22;19916;-81
2022/08/19 05:54:37;;;;;;;;;;;16.20;99.90;;;;;;6220113;23;19990;-81
2022/08/19 05:57:03;;;;;;;;;;;16.40;99.90;;;;;;6221109;23;19994;-80
2022/08/19 05:59:28;;;;;;;;;;;16.60;99.90;;;;;;6220795;23;19951;-81
2022/08/19 06:01:56;;;;;;;;;;;16.70;99.90;;;;;;6221184;23;19959;-79
2022/08/19 06:04:23;;;;;;;;;;;16.90;99.90;;;;;;6221365;23;19927;-81
2022/08/19 06:06:58;;;;;;;;;;;17.10;99.90;;;;;;6221246;23;19986;-79
2022/08/19 06:09:24;;;;;;;;;;;17.40;99.90;;;;;;6246333;23;19916;-81
2022/08/19 06:12:08;;;;;;;;;;;17.60;99.90;;;;;;6221318;23;20346;-83
2022/08/19 06:14:42;;;;;;;;;;;17.70;99.90;;;;;;6220605;23;19916;-81
2022/08/19 06:17:24;;;;;;;;;;;17.90;99.90;;;;;;6221038;23;19926;-82
2022/08/19 06:20:14;;;;;;;;;;;18.00;99.90;;;;;;6223138;22;20347;-83
2022/08/19 06:23:12;;;;;;;;;;;18.10;99.90;;;;;;6223708;23;20384;-79
2022/08/19 06:25:56;;;;;;;;;;;18.20;99.90;;;;;;6200007;23;19927;-79
2022/08/19 06:28:25;;;;;;;;;;;18.30;99.90;;;;;;6197223;23;19916;-79
2022/08/19 06:34:25;;;;;;;;;;;18.60;99.90;;;;;;6214540;23;19932;-80
2022/08/19 06:37:13;;;;;;;;;;;18.70;99.90;;;;;;6191522;23;19963;-80
2022/08/19 06:40:18;;;;;;;;;;;;;;;;;;;;;
2022/08/19 06:43:02;;;;;;;;;;;19.00;99.90;;;;;;6159375;23;20331;-81
2022/08/19 06:45:50;;;;;;;;;;;19.10;99.90;;;;;;6133941;23;19920;-80
2022/08/19 06:51:53;;;;;;;;;;;19.40;99.90;;;;;;6183901;23;19924;-82
2022/08/19 06:55:05;;;;;;;;;;;19.60;99.90;;;;;;6124881;23;19916;-81
2022/08/19 06:58:15;;;;;;;;;;;19.50;99.90;;;;;;6157095;23;19991;-78
2022/08/19 07:00:41;;;;;;;;;;;19.80;99.90;;;;;;6172493;23;19922;-80
2022/08/19 07:03:07;;;;;;;;;;;20.20;99.90;;;;;;6195403;23;20305;-76
2022/08/19 07:05:43;;;;;;;;;;;20.40;99.90;;;;;;6220580;23;19926;-79
2022/08/19 07:08:12;;;;;;;;;;;20.40;99.90;;;;;;6245480;23;20322;-81
2022/08/19 07:10:50;;;;;;;;;;;20.70;99.90;;;;;;6158532;23;19978;-74
2022/08/19 07:13:18;;;;;;;;;;;20.90;99.90;;;;;;6132714;23;19916;-80
2022/08/19 07:15:52;;;;;;;;;;;20.90;99.90;;;;;;6135132;23;19916;-81
2022/08/19 07:18:36;;;;;;;;;;;21.20;99.90;;;;;;6180273;23;19983;-83
2022/08/19 07:24:15;;;;;;;;;;;21.50;99.90;;;;;;6157349;23;19928;-70
2022/08/19 07:26:43;;;;;;;;;;;21.70;99.90;;;;;;6182421;23;20297;-74
2022/08/19 07:29:10;;;;;;;;;;;21.80;99.90;;;;;;6182230;23;20323;-70
2022/08/19 07:31:38;;;;;;;;;;;21.90;99.90;;;;;;6182396;23;19920;-74
2022/08/19 07:34:52;;;;;;;;;;;;;;;;;;;;;
2022/08/19 07:41:45;;;;;;;;;;;22.50;99.90;;;;;;5998284;23;19973;-76
2022/08/19 11:48:29;;;;;;;;;;;27.10;99.90;;;;;;6246267;22;19924;-74
2022/08/19 12:25:06;;;;;;;;;;;27.20;99.90;;;;;;6245301;23;19957;-78
2022/08/19 12:27:38;;;;;;;;;;;27.10;99.90;;;;;;6192517;23;20339;-82
2022/08/19 12:43:43;;;;;;;;;;;27.00;99.90;;;;;;6122671;23;20340;-74
2022/08/19 12:49:36;;;;;;;;;;;26.70;99.90;;;;;;6187223;23;19962;-78
2022/08/19 12:52:10;;;;;;;;;;;26.70;99.90;;;;;;6195752;23;19915;-77
2022/08/19 12:54:37;;;;;;;;;;;26.80;99.90;;;;;;6194725;23;19928;-76
2022/08/19 12:57:16;;;;;;;;;;;26.70;99.90;;;;;;6195005;23;19915;-78
2022/08/19 13:00:18;;;;;;;;;;;26.70;99.90;;;;;;6196029;23;20024;-77
2022/08/19 13:02:49;;;;;;;;;;;26.80;99.90;;;;;;6070031;23;19921;-77
2022/08/19 13:05:19;;;;;;;;;;;26.90;99.90;;;;;;6173122;23;19923;-77
2022/08/19 13:07:45;;;;;;;;;;;27.00;99.90;;;;;;6172208;23;19915;-77
2022/08/19 13:10:15;;;;;;;;;;;27.00;99.90;;;;;;6221292;23;19915;-76
2022/08/19 13:12:42;;;;;;;;;;;27.20;99.90;;;;;;6196540;23;19951;-76
2022/08/19 13:15:14;;;;;;;;;;;27.10;99.90;;;;;;6197306;23;19947;-77
2022/08/19 13:17:40;;;;;;;;;;;27.20;99.90;;;;;;6221635;23;19986;-76
2022/08/19 13:20:08;;;;;;;;;;;27.20;99.90;;;;;;6221264;23;20424;-76
2022/08/19 13:22:37;;;;;;;;;;;27.40;99.90;;;;;;6221303;23;19928;-76
2022/08/19 13:25:13;;;;;;;;;;;27.20;99.90;;;;;;6196493;23;19916;-75
2022/08/19 13:27:39;;;;;;;;;;;27.30;99.90;;;;;;6196673;23;19947;-77
2022/08/19 13:35:34;;;;;;;;;;;27.00;99.90;;;;;;6221706;23;19915;-76
2022/08/19 13:38:04;;;;;;;;;;;27.10;99.90;;;;;;6221735;23;19923;-75
2022/08/19 13:40:33;;;;;;;;;;;27.00;99.90;;;;;;6196071;23;19997;-78
2022/08/19 13:43:00;;;;;;;;;;;27.00;99.90;;;;;;6195543;23;20292;-77
2022/08/19 13:45:33;;;;;;;;;;;27.10;99.90;;;;;;6196312;23;19958;-76
2022/08/19 13:48:00;;;;;;;;;;;27.00;99.90;;;;;;6196395;23;19922;-77
2022/08/19 13:50:34;;;;;;;;;;;27.20;99.90;;;;;;6220889;23;19958;-76
2022/08/19 13:53:02;;;;;;;;;;;27.10;99.90;;;;;;6195688;23;19915;-76
2022/08/19 13:55:28;;;;;;;;;;;27.30;99.90;;;;;;6195927;23;19995;-76
2022/08/19 13:57:57;;;;;;;;;;;27.30;99.90;;;;;;6196138;23;20041;-77
2022/08/19 14:00:24;;;;;;;;;;;27.40;99.90;;;;;;6196277;23;19923;-76
2022/08/19 14:02:51;;;;;;;;;;;27.50;99.90;;;;;;6221016;23;19920;-77
2022/08/19 14:05:21;;;;;;;;;;;27.40;99.90;;;;;;6195975;23;19919;-78
2022/08/19 14:07:47;;;;;;;;;;;27.50;99.90;;;;;;6220773;23;19919;-77
2022/08/19 14:10:16;;;;;;;;;;;27.50;99.90;;;;;;6220955;23;19969;-78
2022/08/19 14:12:42;;;;;;;;;;;27.30;99.90;;;;;;6195863;23;19951;-76
2022/08/19 14:15:09;;;;;;;;;;;27.40;99.90;;;;;;6195960;23;19923;-77
2022/08/19 14:17:40;;;;;;;;;;;27.80;99.90;;;;;;6196200;23;19931;-75
2022/08/19 14:20:09;;;;;;;;;;;28.00;99.90;;;;;;6221157;23;19922;-78
2022/08/19 14:22:37;;;;;;;;;;;28.30;99.90;;;;;;6220230;23;19920;-77
2022/08/19 14:25:04;;;;;;;;;;;28.30;99.90;;;;;;6197143;23;19916;-75
2022/08/19 14:27:33;;;;;;;;;;;28.00;99.90;;;;;;6174205;23;20242;-77
2022/08/19 14:30:03;;;;;;;;;;;28.00;99.90;;;;;;6196646;23;19923;-78
2022/08/19 14:32:28;;;;;;;;;;;27.90;99.90;;;;;;6195416;23;19955;-77
2022/08/19 14:34:54;;;;;;;;;;;27.50;99.90;;;;;;6195540;23;19969;-75
2022/08/19 14:40:27;;;;;;;;;;;26.80;99.90;;;;;;6154531;23;19966;-79
2022/08/19 14:51:18;;;;;;;;;;;26.70;99.90;;;;;;6226471;22;19919;-76
2022/08/19 14:53:48;;;;;;;;;;;27.20;99.90;;;;;;6245657;23;19927;-84
2022/08/19 15:00:12;;;;;;;;;;;28.20;99.90;;;;;;6247193;23;19950;-81
2022/08/19 15:06:06;;;;;;;;;;;29.10;99.90;;;;;;6245493;23;20002;-77
2022/08/19 15:08:34;;;;;;;;;;;29.00;99.90;;;;;;6219850;23;19921;-78
2022/08/19 15:11:27;;;;;;;;;;;28.60;99.90;;;;;;6222226;22;19922;-76
2022/08/19 15:13:55;;;;;;;;;;;28.10;99.90;;;;;;6243307;23;20444;-71
2022/08/19 15:16:21;;;;;;;;;;;27.90;99.90;;;;;;6218833;23;19921;-73
2022/08/19 15:18:51;;;;;;;;;;;27.80;99.90;;;;;;6243932;23;20310;-73
2022/08/19 15:21:41;;;;;;;;;;;;;;;;;;;;;
2022/08/19 15:24:10;;;;;;;;;;;27.30;99.90;;;;;;6244961;23;19919;-71
2022/08/19 15:26:36;;;;;;;;;;;27.00;99.90;;;;;;6218840;23;19916;-73
2022/08/19 15:29:04;;;;;;;;;;;27.40;99.90;;;;;;6244100;23;19942;-71
2022/08/19 15:31:35;;;;;;;;;;;27.70;99.90;;;;;;6217992;23;19986;-72
2022/08/19 15:34:02;;;;;;;;;;;27.70;99.90;;;;;;6244230;23;19919;-71
2022/08/19 15:36:27;;;;;;;;;;;28.00;99.90;;;;;;6245715;22;19998;-71
2022/08/19 15:38:54;;;;;;;;;;;28.60;99.90;;;;;;6219004;23;20024;-72
2022/08/19 15:41:25;;;;;;;;;;;28.90;99.90;;;;;;6218977;23;19920;-73
2022/08/19 15:43:52;;;;;;;;;;;28.90;99.90;;;;;;6218899;23;19926;-71
2022/08/19 15:46:21;;;;;;;;;;;29.20;99.90;;;;;;6245405;23;19994;-72
2022/08/19 15:48:47;;;;;;;;;;;29.40;99.90;;;;;;6246750;22;19966;-72
2022/08/19 15:51:13;;;;;;;;;;;29.40;99.90;;;;;;6245655;22;20003;-72
2022/08/19 15:53:42;;;;;;;;;;;29.40;99.90;;;;;;6244675;23;19920;-72
2022/08/19 15:56:08;;;;;;;;;;;29.00;99.90;;;;;;6219941;23;20001;-72
2022/08/19 16:06:44;;;;;;;;;;;29.30;99.90;;;;;;6245235;23;19920;-74
2022/08/19 16:09:11;;;;;;;;;;;29.90;99.90;;;;;;6245130;23;19954;-73
2022/08/19 16:11:37;;;;;;;;;;;29.40;99.90;;;;;;6194820;23;19916;-72
2022/08/19 16:14:03;;;;;;;;;;;28.70;99.90;;;;;;6245349;23;19946;-72
2022/08/19 16:16:32;;;;;;;;;;;28.00;99.90;;;;;;6245428;23;19919;-73
2022/08/19 16:18:59;;;;;;;;;;;27.50;99.90;;;;;;6220031;23;19919;-71
2022/08/19 16:21:31;;;;;;;;;;;27.20;99.90;;;;;;6219582;23;19994;-74
2022/08/19 16:23:59;;;;;;;;;;;26.70;99.90;;;;;;6245634;23;19920;-72
2022/08/19 16:26:25;;;;;;;;;;;26.50;99.90;;;;;;6245277;23;19920;-71
2022/08/19 16:28:50;;;;;;;;;;;26.20;99.90;;;;;;6220108;23;19926;-73
2022/08/19 16:31:16;;;;;;;;;;;25.90;99.90;;;;;;6246611;22;19990;-73
2022/08/19 16:33:42;;;;;;;;;;;25.70;99.90;;;;;;6194786;23;19982;-72
2022/08/19 16:36:08;;;;;;;;;;;25.40;99.90;;;;;;6194718;23;19923;-71
2022/08/19 16:38:33;;;;;;;;;;;25.20;99.90;;;;;;6244975;23;19919;-72
2022/08/19 16:41:00;;;;;;;;;;;25.20;99.90;;;;;;6245198;22;19916;-73
2022/08/19 16:43:26;;;;;;;;;;;25.00;99.90;;;;;;6219556;23;19938;-72
2022/08/19 16:45:52;;;;;;;;;;;24.90;99.90;;;;;;6194828;23;19923;-73
2022/08/19 16:48:22;;;;;;;;;;;24.80;99.90;;;;;;6245325;23;19955;-72
2022/08/19 16:50:49;;;;;;;;;;;24.70;99.90;;;;;;6244533;23;19973;-73
2022/08/19 16:53:18;;;;;;;;;;;24.60;99.90;;;;;;6246676;22;19920;-73
2022/08/19 16:55:45;;;;;;;;;;;24.50;99.90;;;;;;6245084;23;19965;-73
2022/08/19 16:58:13;;;;;;;;;;;24.30;99.90;;;;;;6219876;23;19928;-73
2022/08/19 17:00:39;;;;;;;;;;;24.30;99.90;;;;;;6219846;23;19919;-72
2022/08/19 17:03:06;;;;;;;;;;;24.30;99.90;;;;;;6244875;22;19926;-72
2022/08/19 17:05:31;;;;;;;;;;;24.10;99.90;;;;;;6219874;23;19942;-73
2022/08/19 17:07:57;;;;;;;;;;;24.00;99.90;;;;;;6245362;23;19951;-72
2022/08/19 17:10:23;;;;;;;;;;;23.90;99.90;;;;;;6194915;23;20300;-73
2022/08/19 17:12:48;;;;;;;;;;;23.80;99.90;;;;;;6244956;22;19962;-72
2022/08/19 17:15:14;;;;;;;;;;;23.60;99.90;;;;;;6246496;22;19942;-71
2022/08/19 17:17:40;;;;;;;;;;;23.50;99.90;;;;;;6194822;23;19926;-73
2022/08/19 17:20:06;;;;;;;;;;;23.40;99.90;;;;;;6245037;23;19990;-72
2022/08/19 17:22:34;;;;;;;;;;;23.30;99.90;;;;;;6244989;22;20001;-72
2022/08/19 17:25:00;;;;;;;;;;;23.20;99.90;;;;;;6244724;23;19920;-71
2022/08/19 17:27:26;;;;;;;;;;;23.20;99.90;;;;;;6219502;23;19927;-74
2022/08/19 17:29:52;;;;;;;;;;;23.20;99.90;;;;;;6219788;23;19926;-73
2022/08/19 17:32:18;;;;;;;;;;;23.10;99.90;;;;;;6220515;23;19919;-72
2022/08/19 17:34:44;;;;;;;;;;;23.00;99.90;;;;;;6246530;23;19916;-72
2022/08/19 17:37:09;;;;;;;;;;;23.00;99.90;;;;;;6246540;23;19947;-72
2022/08/19 17:39:37;;;;;;;;;;;22.90;99.90;;;;;;6246478;23;20301;-71
2022/08/19 17:42:03;;;;;;;;;;;23.00;99.90;;;;;;6221332;23;19930;-73
2022/08/19 17:44:28;;;;;;;;;;;22.90;99.90;;;;;;6221445;23;19994;-72
2022/08/19 17:46:55;;;;;;;;;;;22.90;99.90;;;;;;6221311;23;19977;-71
2022/08/19 17:49:20;;;;;;;;;;;22.80;99.90;;;;;;6248656;23;19942;-71
2022/08/19 17:51:48;;;;;;;;;;;22.80;99.90;;;;;;6221059;23;20326;-71
2022/08/19 17:54:15;;;;;;;;;;;22.70;99.90;;;;;;6221564;23;20330;-72
2022/08/19 17:56:42;;;;;;;;;;;22.60;99.90;;;;;;6221305;23;19920;-72
2022/08/19 17:59:08;;;;;;;;;;;22.60;99.90;;;;;;6221281;23;20254;-72
2022/08/19 18:01:33;;;;;;;;;;;22.50;99.90;;;;;;6221268;23;19931;-72
2022/08/19 18:04:00;;;;;;;;;;;22.50;99.90;;;;;;6246444;23;19920;-73
2022/08/19 18:06:27;;;;;;;;;;;22.50;99.90;;;;;;6221408;23;19920;-72
2022/08/19 18:08:52;;;;;;;;;;;22.40;99.90;;;;;;6220963;23;19942;-73
2022/08/19 18:11:18;;;;;;;;;;;22.40;99.90;;;;;;6220776;22;19924;-73
2022/08/19 18:13:43;;;;;;;;;;;22.30;99.90;;;;;;6220800;23;19970;-74
2022/08/19 18:16:12;;;;;;;;;;;22.30;99.90;;;;;;6220766;23;19974;-73
2022/08/19 18:18:39;;;;;;;;;;;22.20;99.90;;;;;;6220871;23;19920;-72
2022/08/19 18:21:05;;;;;;;;;;;22.20;99.90;;;;;;6246455;22;19915;-73
2022/08/19 18:23:31;;;;;;;;;;;22.20;99.90;;;;;;6247849;23;19923;-73
2022/08/19 18:25:56;;;;;;;;;;;22.10;99.90;;;;;;6246050;23;19925;-71
2022/08/19 18:28:24;;;;;;;;;;;22.10;99.90;;;;;;6220776;23;20301;-72
2022/08/19 18:30:50;;;;;;;;;;;22.00;99.90;;;;;;6220607;23;19998;-72
2022/08/19 18:33:15;;;;;;;;;;;22.00;99.90;;;;;;6220760;23;19943;-73
2022/08/19 18:35:44;;;;;;;;;;;22.00;99.90;;;;;;6246177;23;19941;-73
2022/08/19 18:49:13;;;;;;;;;;;21.70;99.90;;;;;;6245960;23;19915;-72
2022/08/19 18:51:39;;;;;;;;;;;21.70;99.90;;;;;;6246054;22;19915;-73
2022/08/19 18:54:05;;;;;;;;;;;21.70;99.90;;;;;;6245926;23;19926;-74
2022/08/19 18:56:31;;;;;;;;;;;21.60;99.90;;;;;;6220396;23;19987;-73
2022/08/19 18:58:57;;;;;;;;;;;21.60;99.90;;;;;;6220312;23;20327;-73
2022/08/19 19:01:28;;;;;;;;;;;21.60;99.90;;;;;;6246019;22;19919;-73
2022/08/19 19:03:54;;;;;;;;;;;21.50;99.90;;;;;;6245662;23;19919;-73
2022/08/19 19:06:25;;;;;;;;;;;21.50;99.90;;;;;;6220268;23;19920;-73
2022/08/19 19:08:51;;;;;;;;;;;21.50;99.90;;;;;;6245909;23;19920;-73
2022/08/19 19:11:28;;;;;;;;;;;21.50;99.90;;;;;;6220438;22;19926;-73
2022/08/19 19:13:54;;;;;;;;;;;21.50;99.90;;;;;;6245848;23;19958;-73
2022/08/19 19:16:21;;;;;;;;;;;21.50;99.90;;;;;;6220311;23;19916;-72
2022/08/19 19:18:52;;;;;;;;;;;21.40;99.90;;;;;;6220207;23;19916;-73
2022/08/19 19:21:23;;;;;;;;;;;21.40;99.90;;;;;;6245437;22;20334;-73
2022/08/19 19:23:49;;;;;;;;;;;21.40;99.90;;;;;;6247265;22;19942;-73
2022/08/19 19:26:14;;;;;;;;;;;21.40;99.90;;;;;;6245486;23;19919;-72
2022/08/19 19:28:44;;;;;;;;;;;21.30;99.90;;;;;;6220475;23;20406;-73
2022/08/19 19:31:18;;;;;;;;;;;21.20;99.90;;;;;;6220428;23;19919;-73
2022/08/19 19:33:44;;;;;;;;;;;21.20;99.90;;;;;;6220062;23;19919;-73
2022/08/19 19:36:10;;;;;;;;;;;21.10;99.90;;;;;;6220071;23;20258;-73
2022/08/19 19:38:36;;;;;;;;;;;21.10;99.90;;;;;;6220043;23;19991;-73
2022/08/19 19:41:01;;;;;;;;;;;21.10;99.90;;;;;;6220387;23;19916;-74
2022/08/19 19:43:29;;;;;;;;;;;21.00;99.90;;;;;;6219629;23;19915;-72
2022/08/19 19:45:55;;;;;;;;;;;20.90;99.90;;;;;;6245770;23;19920;-73
2022/08/19 19:48:21;;;;;;;;;;;20.80;99.90;;;;;;6219915;23;19965;-72
2022/08/19 19:50:47;;;;;;;;;;;20.80;99.90;;;;;;6244945;23;19922;-72
2022/08/19 19:53:14;;;;;;;;;;;20.70;99.90;;;;;;6219877;23;19994;-72
2022/08/19 19:55:40;;;;;;;;;;;20.70;99.90;;;;;;6220933;23;20338;-72
2022/08/19 19:58:05;;;;;;;;;;;20.60;99.90;;;;;;6219928;23;20223;-73
2022/08/19 20:00:31;;;;;;;;;;;20.60;99.90;;;;;;6220562;23;19982;-72
2022/08/19 20:02:57;;;;;;;;;;;20.60;99.90;;;;;;6219752;23;20246;-74
2022/08/19 20:05:23;;;;;;;;;;;20.50;99.90;;;;;;6219835;23;19924;-72
2022/08/19 20:10:34;;;;;;;;;;;20.40;99.90;;;;;;6245512;23;20361;-73
2022/08/19 20:13:01;;;;;;;;;;;20.40;99.90;;;;;;6245457;22;19916;-73
2022/08/19 20:15:27;;;;;;;;;;;20.30;99.90;;;;;;6245553;23;20318;-73
2022/08/19 20:17:53;;;;;;;;;;;20.30;99.90;;;;;;6220122;23;19916;-74
2022/08/19 20:20:19;;;;;;;;;;;20.30;99.90;;;;;;6221009;23;19915;-73
2022/08/19 20:22:46;;;;;;;;;;;20.30;99.90;;;;;;6221733;23;20350;-73
2022/08/19 20:25:13;;;;;;;;;;;20.20;99.90;;;;;;6219822;23;19920;-74
2022/08/19 20:27:39;;;;;;;;;;;20.20;99.90;;;;;;6245289;23;19981;-73
2022/08/19 20:30:06;;;;;;;;;;;20.10;99.90;;;;;;6220129;23;19915;-73
2022/08/19 20:32:31;;;;;;;;;;;20.10;99.90;;;;;;6244911;22;19916;-72